<?xml version="1.0" encoding="UTF-8" standalone="no" ?>
<gpx xmlns="http://www.topografix.com/GPX/1/1" xmlns:xsi="http://www.w3.org/2001/XMLSchema-instance" xsi:schemaLocation="http://www.topografix.com/GPX/1/1 http://www.topografix.com/GPX/1/1/gpx.xsd" version="1.1" creator="VisuGPX - https://www.visugpx.com">
  <metadata>
    <name>La Galine :La Mole</name>
    <desc><![CDATA[Belle rando. à la decouverte d'une "autre" partie de La Mole :La Galine : vignobles. Le chemin de Blandain nécessite le contournement d'un portique empéchant les voitures de passer mais pas à pieds.La pause correspond au pique nique.]]></desc>
  </metadata>
  <trk>
    <name><![CDATA[25 mai 2016 10:49:20]]></name>
    <cmt><![CDATA[25 mai 2016 10:49:20]]></cmt>
    <trkseg>
      <trkpt lat="43.20653" lon="6.46855">
        <ele>32</ele>
        <time>2016-05-25T08:49:21Z</time>
      </trkpt>
      <trkpt lat="43.20653" lon="6.4684">
        <ele>37</ele>
        <time>2016-05-25T08:49:31Z</time>
      </trkpt>
      <trkpt lat="43.20664" lon="6.46868">
        <ele>33</ele>
        <time>2016-05-25T08:51:24Z</time>
      </trkpt>
      <trkpt lat="43.20682" lon="6.46889">
        <ele>39</ele>
        <time>2016-05-25T08:51:45Z</time>
      </trkpt>
      <trkpt lat="43.20704" lon="6.46897">
        <ele>37</ele>
        <time>2016-05-25T08:52:10Z</time>
      </trkpt>
      <trkpt lat="43.20726" lon="6.469">
        <ele>37</ele>
        <time>2016-05-25T08:52:31Z</time>
      </trkpt>
      <trkpt lat="43.20772" lon="6.46904">
        <ele>36</ele>
        <time>2016-05-25T08:53:12Z</time>
      </trkpt>
      <trkpt lat="43.20791" lon="6.46887">
        <ele>37</ele>
        <time>2016-05-25T08:53:31Z</time>
      </trkpt>
      <trkpt lat="43.20811" lon="6.46871">
        <ele>37</ele>
        <time>2016-05-25T08:53:58Z</time>
      </trkpt>
      <trkpt lat="43.20857" lon="6.46857">
        <ele>38</ele>
        <time>2016-05-25T08:54:39Z</time>
      </trkpt>
      <trkpt lat="43.20894" lon="6.46821">
        <ele>41</ele>
        <time>2016-05-25T08:55:24Z</time>
      </trkpt>
      <trkpt lat="43.20914" lon="6.46807">
        <ele>41</ele>
        <time>2016-05-25T08:55:44Z</time>
      </trkpt>
      <trkpt lat="43.20944" lon="6.4676">
        <ele>42</ele>
        <time>2016-05-25T08:56:27Z</time>
      </trkpt>
      <trkpt lat="43.20968" lon="6.46753">
        <ele>43</ele>
        <time>2016-05-25T08:57:02Z</time>
      </trkpt>
      <trkpt lat="43.2099" lon="6.46762">
        <ele>43</ele>
        <time>2016-05-25T08:57:20Z</time>
      </trkpt>
      <trkpt lat="43.21004" lon="6.46787">
        <ele>44</ele>
        <time>2016-05-25T08:57:39Z</time>
      </trkpt>
      <trkpt lat="43.21012" lon="6.46816">
        <ele>44</ele>
        <time>2016-05-25T08:57:57Z</time>
      </trkpt>
      <trkpt lat="43.21013" lon="6.46847">
        <ele>45</ele>
        <time>2016-05-25T08:58:18Z</time>
      </trkpt>
      <trkpt lat="43.21019" lon="6.46907">
        <ele>45</ele>
        <time>2016-05-25T08:59:00Z</time>
      </trkpt>
      <trkpt lat="43.21029" lon="6.46935">
        <ele>46</ele>
        <time>2016-05-25T08:59:22Z</time>
      </trkpt>
      <trkpt lat="43.21028" lon="6.46967">
        <ele>46</ele>
        <time>2016-05-25T08:59:46Z</time>
      </trkpt>
      <trkpt lat="43.21015" lon="6.46994">
        <ele>47</ele>
        <time>2016-05-25T09:00:13Z</time>
      </trkpt>
      <trkpt lat="43.21021" lon="6.47025">
        <ele>47</ele>
        <time>2016-05-25T09:00:33Z</time>
      </trkpt>
      <trkpt lat="43.21035" lon="6.47082">
        <ele>50</ele>
        <time>2016-05-25T09:01:17Z</time>
      </trkpt>
      <trkpt lat="43.21047" lon="6.47108">
        <ele>51</ele>
        <time>2016-05-25T09:01:40Z</time>
      </trkpt>
      <trkpt lat="43.21042" lon="6.4714">
        <ele>52</ele>
        <time>2016-05-25T09:02:03Z</time>
      </trkpt>
      <trkpt lat="43.21044" lon="6.47172">
        <ele>55</ele>
        <time>2016-05-25T09:02:25Z</time>
      </trkpt>
      <trkpt lat="43.21059" lon="6.47197">
        <ele>56</ele>
        <time>2016-05-25T09:02:47Z</time>
      </trkpt>
      <trkpt lat="43.21084" lon="6.47249">
        <ele>60</ele>
        <time>2016-05-25T09:03:33Z</time>
      </trkpt>
      <trkpt lat="43.21108" lon="6.47303">
        <ele>63</ele>
        <time>2016-05-25T09:04:16Z</time>
      </trkpt>
      <trkpt lat="43.21123" lon="6.47325">
        <ele>64</ele>
        <time>2016-05-25T09:04:40Z</time>
      </trkpt>
      <trkpt lat="43.2113" lon="6.47355">
        <ele>66</ele>
        <time>2016-05-25T09:04:59Z</time>
      </trkpt>
      <trkpt lat="43.2115" lon="6.47409">
        <ele>70</ele>
        <time>2016-05-25T09:05:37Z</time>
      </trkpt>
      <trkpt lat="43.21167" lon="6.4743">
        <ele>72</ele>
        <time>2016-05-25T09:05:56Z</time>
      </trkpt>
      <trkpt lat="43.21191" lon="6.47484">
        <ele>74</ele>
        <time>2016-05-25T09:06:36Z</time>
      </trkpt>
      <trkpt lat="43.21209" lon="6.47544">
        <ele>76</ele>
        <time>2016-05-25T09:07:13Z</time>
      </trkpt>
      <trkpt lat="43.21218" lon="6.47606">
        <ele>76</ele>
        <time>2016-05-25T09:07:49Z</time>
      </trkpt>
      <trkpt lat="43.21238" lon="6.47662">
        <ele>77</ele>
        <time>2016-05-25T09:08:29Z</time>
      </trkpt>
      <trkpt lat="43.21251" lon="6.47688">
        <ele>77</ele>
        <time>2016-05-25T09:08:48Z</time>
      </trkpt>
      <trkpt lat="43.21271" lon="6.47706">
        <ele>77</ele>
        <time>2016-05-25T09:09:06Z</time>
      </trkpt>
      <trkpt lat="43.21292" lon="6.4772">
        <ele>77</ele>
        <time>2016-05-25T09:10:15Z</time>
      </trkpt>
      <trkpt lat="43.21311" lon="6.47736">
        <ele>77</ele>
        <time>2016-05-25T09:10:36Z</time>
      </trkpt>
      <trkpt lat="43.21348" lon="6.47774">
        <ele>76</ele>
        <time>2016-05-25T09:11:14Z</time>
      </trkpt>
      <trkpt lat="43.21367" lon="6.47791">
        <ele>77</ele>
        <time>2016-05-25T09:11:34Z</time>
      </trkpt>
      <trkpt lat="43.21388" lon="6.47802">
        <ele>77</ele>
        <time>2016-05-25T09:11:54Z</time>
      </trkpt>
      <trkpt lat="43.21404" lon="6.47825">
        <ele>77</ele>
        <time>2016-05-25T09:12:16Z</time>
      </trkpt>
      <trkpt lat="43.21419" lon="6.47849">
        <ele>78</ele>
        <time>2016-05-25T09:12:38Z</time>
      </trkpt>
      <trkpt lat="43.21442" lon="6.47846">
        <ele>80</ele>
        <time>2016-05-25T09:13:04Z</time>
      </trkpt>
      <trkpt lat="43.21446" lon="6.47815">
        <ele>81</ele>
        <time>2016-05-25T09:13:29Z</time>
      </trkpt>
      <trkpt lat="43.21442" lon="6.47753">
        <ele>83</ele>
        <time>2016-05-25T09:14:11Z</time>
      </trkpt>
      <trkpt lat="43.21424" lon="6.47695">
        <ele>86</ele>
        <time>2016-05-25T09:14:52Z</time>
      </trkpt>
      <trkpt lat="43.21409" lon="6.47637">
        <ele>88</ele>
        <time>2016-05-25T09:15:37Z</time>
      </trkpt>
      <trkpt lat="43.21422" lon="6.47612">
        <ele>100</ele>
        <time>2016-05-25T09:16:47Z</time>
      </trkpt>
      <trkpt lat="43.21446" lon="6.47608">
        <ele>93</ele>
        <time>2016-05-25T09:17:05Z</time>
      </trkpt>
      <trkpt lat="43.21469" lon="6.47614">
        <ele>95</ele>
        <time>2016-05-25T09:17:22Z</time>
      </trkpt>
      <trkpt lat="43.21514" lon="6.47628">
        <ele>100</ele>
        <time>2016-05-25T09:17:56Z</time>
      </trkpt>
      <trkpt lat="43.21561" lon="6.47629">
        <ele>103</ele>
        <time>2016-05-25T09:18:29Z</time>
      </trkpt>
      <trkpt lat="43.21584" lon="6.47634">
        <ele>104</ele>
        <time>2016-05-25T09:18:51Z</time>
      </trkpt>
      <trkpt lat="43.21606" lon="6.47645">
        <ele>104</ele>
        <time>2016-05-25T09:19:09Z</time>
      </trkpt>
      <trkpt lat="43.21643" lon="6.47683">
        <ele>106</ele>
        <time>2016-05-25T09:19:58Z</time>
      </trkpt>
      <trkpt lat="43.21678" lon="6.47724">
        <ele>108</ele>
        <time>2016-05-25T09:20:40Z</time>
      </trkpt>
      <trkpt lat="43.21697" lon="6.47741">
        <ele>110</ele>
        <time>2016-05-25T09:21:05Z</time>
      </trkpt>
      <trkpt lat="43.2172" lon="6.47742">
        <ele>111</ele>
        <time>2016-05-25T09:21:28Z</time>
      </trkpt>
      <trkpt lat="43.21737" lon="6.47721">
        <ele>112</ele>
        <time>2016-05-25T09:22:03Z</time>
      </trkpt>
      <trkpt lat="43.2176" lon="6.47719">
        <ele>114</ele>
        <time>2016-05-25T09:22:22Z</time>
      </trkpt>
      <trkpt lat="43.21783" lon="6.47725">
        <ele>115</ele>
        <time>2016-05-25T09:22:44Z</time>
      </trkpt>
      <trkpt lat="43.2182" lon="6.47763">
        <ele>117</ele>
        <time>2016-05-25T09:23:24Z</time>
      </trkpt>
      <trkpt lat="43.21857" lon="6.478">
        <ele>120</ele>
        <time>2016-05-25T09:24:09Z</time>
      </trkpt>
      <trkpt lat="43.21888" lon="6.47846">
        <ele>124</ele>
        <time>2016-05-25T09:25:01Z</time>
      </trkpt>
      <trkpt lat="43.21928" lon="6.47875">
        <ele>128</ele>
        <time>2016-05-25T09:25:43Z</time>
      </trkpt>
      <trkpt lat="43.21962" lon="6.47916">
        <ele>133</ele>
        <time>2016-05-25T09:26:28Z</time>
      </trkpt>
      <trkpt lat="43.21984" lon="6.47922">
        <ele>136</ele>
        <time>2016-05-25T09:26:52Z</time>
      </trkpt>
      <trkpt lat="43.22005" lon="6.47909">
        <ele>138</ele>
        <time>2016-05-25T09:27:10Z</time>
      </trkpt>
      <trkpt lat="43.22047" lon="6.47881">
        <ele>142</ele>
        <time>2016-05-25T09:28:21Z</time>
      </trkpt>
      <trkpt lat="43.22087" lon="6.47847">
        <ele>146</ele>
        <time>2016-05-25T09:29:03Z</time>
      </trkpt>
      <trkpt lat="43.22125" lon="6.47814">
        <ele>150</ele>
        <time>2016-05-25T09:29:44Z</time>
      </trkpt>
      <trkpt lat="43.22165" lon="6.47785">
        <ele>153</ele>
        <time>2016-05-25T09:30:28Z</time>
      </trkpt>
      <trkpt lat="43.22209" lon="6.47772">
        <ele>158</ele>
        <time>2016-05-25T09:31:13Z</time>
      </trkpt>
      <trkpt lat="43.22255" lon="6.47762">
        <ele>163</ele>
        <time>2016-05-25T09:32:00Z</time>
      </trkpt>
      <trkpt lat="43.223" lon="6.47762">
        <ele>167</ele>
        <time>2016-05-25T09:32:42Z</time>
      </trkpt>
      <trkpt lat="43.22346" lon="6.47766">
        <ele>171</ele>
        <time>2016-05-25T09:33:23Z</time>
      </trkpt>
      <trkpt lat="43.22368" lon="6.47773">
        <ele>173</ele>
        <time>2016-05-25T09:33:43Z</time>
      </trkpt>
      <trkpt lat="43.22414" lon="6.47765">
        <ele>176</ele>
        <time>2016-05-25T09:34:24Z</time>
      </trkpt>
      <trkpt lat="43.22437" lon="6.47762">
        <ele>178</ele>
        <time>2016-05-25T09:34:46Z</time>
      </trkpt>
      <trkpt lat="43.22456" lon="6.47743">
        <ele>181</ele>
        <time>2016-05-25T09:35:06Z</time>
      </trkpt>
      <trkpt lat="43.22465" lon="6.47715">
        <ele>183</ele>
        <time>2016-05-25T09:35:25Z</time>
      </trkpt>
      <trkpt lat="43.22478" lon="6.47687">
        <ele>185</ele>
        <time>2016-05-25T09:35:48Z</time>
      </trkpt>
      <trkpt lat="43.22497" lon="6.47664">
        <ele>189</ele>
        <time>2016-05-25T09:36:18Z</time>
      </trkpt>
      <trkpt lat="43.22519" lon="6.47656">
        <ele>189</ele>
        <time>2016-05-25T09:36:42Z</time>
      </trkpt>
      <trkpt lat="43.22531" lon="6.47684">
        <ele>190</ele>
        <time>2016-05-25T09:37:07Z</time>
      </trkpt>
      <trkpt lat="43.2255" lon="6.47742">
        <ele>191</ele>
        <time>2016-05-25T09:37:57Z</time>
      </trkpt>
      <trkpt lat="43.22571" lon="6.47754">
        <ele>191</ele>
        <time>2016-05-25T09:38:18Z</time>
      </trkpt>
      <trkpt lat="43.22587" lon="6.47776">
        <ele>190</ele>
        <time>2016-05-25T09:38:41Z</time>
      </trkpt>
      <trkpt lat="43.22624" lon="6.47813">
        <ele>191</ele>
        <time>2016-05-25T09:39:29Z</time>
      </trkpt>
      <trkpt lat="43.22646" lon="6.47824">
        <ele>191</ele>
        <time>2016-05-25T09:39:48Z</time>
      </trkpt>
      <trkpt lat="43.22664" lon="6.47842">
        <ele>190</ele>
        <time>2016-05-25T09:40:06Z</time>
      </trkpt>
      <trkpt lat="43.22677" lon="6.47869">
        <ele>189</ele>
        <time>2016-05-25T09:40:29Z</time>
      </trkpt>
      <trkpt lat="43.22686" lon="6.47898">
        <ele>190</ele>
        <time>2016-05-25T09:40:50Z</time>
      </trkpt>
      <trkpt lat="43.22707" lon="6.4791">
        <ele>190</ele>
        <time>2016-05-25T09:41:15Z</time>
      </trkpt>
      <trkpt lat="43.22746" lon="6.47942">
        <ele>190</ele>
        <time>2016-05-25T09:41:56Z</time>
      </trkpt>
      <trkpt lat="43.22769" lon="6.47946">
        <ele>189</ele>
        <time>2016-05-25T09:42:38Z</time>
      </trkpt>
      <trkpt lat="43.2279" lon="6.47959">
        <ele>189</ele>
        <time>2016-05-25T09:42:54Z</time>
      </trkpt>
      <trkpt lat="43.2281" lon="6.47977">
        <ele>187</ele>
        <time>2016-05-25T09:43:13Z</time>
      </trkpt>
      <trkpt lat="43.22829" lon="6.47994">
        <ele>187</ele>
        <time>2016-05-25T09:44:18Z</time>
      </trkpt>
      <trkpt lat="43.22828" lon="6.48027">
        <ele>181</ele>
        <time>2016-05-25T09:44:43Z</time>
      </trkpt>
      <trkpt lat="43.22823" lon="6.48089">
        <ele>182</ele>
        <time>2016-05-25T09:45:25Z</time>
      </trkpt>
      <trkpt lat="43.22838" lon="6.48113">
        <ele>178</ele>
        <time>2016-05-25T09:45:46Z</time>
      </trkpt>
      <trkpt lat="43.22852" lon="6.48138">
        <ele>176</ele>
        <time>2016-05-25T09:46:08Z</time>
      </trkpt>
      <trkpt lat="43.22866" lon="6.48163">
        <ele>175</ele>
        <time>2016-05-25T09:46:35Z</time>
      </trkpt>
      <trkpt lat="43.22906" lon="6.48195">
        <ele>173</ele>
        <time>2016-05-25T09:47:14Z</time>
      </trkpt>
      <trkpt lat="43.22934" lon="6.48245">
        <ele>171</ele>
        <time>2016-05-25T09:47:56Z</time>
      </trkpt>
      <trkpt lat="43.22954" lon="6.4826">
        <ele>170</ele>
        <time>2016-05-25T09:48:14Z</time>
      </trkpt>
      <trkpt lat="43.22977" lon="6.48258">
        <ele>169</ele>
        <time>2016-05-25T09:48:37Z</time>
      </trkpt>
      <trkpt lat="43.23" lon="6.4825">
        <ele>169</ele>
        <time>2016-05-25T09:49:03Z</time>
      </trkpt>
      <trkpt lat="43.23012" lon="6.48224">
        <ele>168</ele>
        <time>2016-05-25T09:49:34Z</time>
      </trkpt>
      <trkpt lat="43.23031" lon="6.48242">
        <ele>164</ele>
        <time>2016-05-25T09:50:08Z</time>
      </trkpt>
      <trkpt lat="43.23068" lon="6.4828">
        <ele>160</ele>
        <time>2016-05-25T09:51:05Z</time>
      </trkpt>
      <trkpt lat="43.23108" lon="6.48311">
        <ele>155</ele>
        <time>2016-05-25T09:52:02Z</time>
      </trkpt>
      <trkpt lat="43.23129" lon="6.4832">
        <ele>153</ele>
        <time>2016-05-25T09:52:26Z</time>
      </trkpt>
      <trkpt lat="43.23146" lon="6.48341">
        <ele>149</ele>
        <time>2016-05-25T09:52:51Z</time>
      </trkpt>
      <trkpt lat="43.2317" lon="6.48394">
        <ele>142</ele>
        <time>2016-05-25T09:53:40Z</time>
      </trkpt>
      <trkpt lat="43.23192" lon="6.48402">
        <ele>112</ele>
        <time>2016-05-25T09:56:28Z</time>
      </trkpt>
      <trkpt lat="43.23209" lon="6.48423">
        <ele>102</ele>
        <time>2016-05-25T09:58:00Z</time>
      </trkpt>
      <trkpt lat="43.23224" lon="6.48446">
        <ele>101</ele>
        <time>2016-05-25T09:59:13Z</time>
      </trkpt>
      <trkpt lat="43.2324" lon="6.48469">
        <ele>100</ele>
        <time>2016-05-25T09:59:49Z</time>
      </trkpt>
      <trkpt lat="43.23239" lon="6.485">
        <ele>102</ele>
        <time>2016-05-25T10:00:22Z</time>
      </trkpt>
      <trkpt lat="43.23244" lon="6.48531">
        <ele>99</ele>
        <time>2016-05-25T10:00:47Z</time>
      </trkpt>
      <trkpt lat="43.23246" lon="6.48562">
        <ele>99</ele>
        <time>2016-05-25T10:01:12Z</time>
      </trkpt>
      <trkpt lat="43.23227" lon="6.48578">
        <ele>98</ele>
        <time>2016-05-25T10:01:43Z</time>
      </trkpt>
      <trkpt lat="43.23183" lon="6.48593">
        <ele>97</ele>
        <time>2016-05-25T10:02:28Z</time>
      </trkpt>
      <trkpt lat="43.23142" lon="6.48623">
        <ele>95</ele>
        <time>2016-05-25T10:03:21Z</time>
      </trkpt>
      <trkpt lat="43.23131" lon="6.48651">
        <ele>94</ele>
        <time>2016-05-25T10:03:51Z</time>
      </trkpt>
      <trkpt lat="43.23137" lon="6.48681">
        <ele>93</ele>
        <time>2016-05-25T10:04:13Z</time>
      </trkpt>
      <trkpt lat="43.23125" lon="6.48709">
        <ele>93</ele>
        <time>2016-05-25T10:04:35Z</time>
      </trkpt>
      <trkpt lat="43.23119" lon="6.4874">
        <ele>93</ele>
        <time>2016-05-25T10:04:54Z</time>
      </trkpt>
      <trkpt lat="43.23125" lon="6.48772">
        <ele>91</ele>
        <time>2016-05-25T10:05:12Z</time>
      </trkpt>
      <trkpt lat="43.23143" lon="6.48793">
        <ele>90</ele>
        <time>2016-05-25T10:05:32Z</time>
      </trkpt>
      <trkpt lat="43.23166" lon="6.4879">
        <ele>88</ele>
        <time>2016-05-25T10:05:53Z</time>
      </trkpt>
      <trkpt lat="43.23186" lon="6.48776">
        <ele>88</ele>
        <time>2016-05-25T10:06:38Z</time>
      </trkpt>
      <trkpt lat="43.23228" lon="6.4875">
        <ele>87</ele>
        <time>2016-05-25T10:07:21Z</time>
      </trkpt>
      <trkpt lat="43.23249" lon="6.48761">
        <ele>86</ele>
        <time>2016-05-25T10:07:47Z</time>
      </trkpt>
      <trkpt lat="43.2327" lon="6.48773">
        <ele>85</ele>
        <time>2016-05-25T10:08:08Z</time>
      </trkpt>
      <trkpt lat="43.23279" lon="6.48803">
        <ele>84</ele>
        <time>2016-05-25T10:08:33Z</time>
      </trkpt>
      <trkpt lat="43.23298" lon="6.4886">
        <ele>81</ele>
        <time>2016-05-25T10:09:14Z</time>
      </trkpt>
      <trkpt lat="43.23314" lon="6.48883">
        <ele>81</ele>
        <time>2016-05-25T10:09:37Z</time>
      </trkpt>
      <trkpt lat="43.23337" lon="6.48893">
        <ele>79</ele>
        <time>2016-05-25T10:10:00Z</time>
      </trkpt>
      <trkpt lat="43.23359" lon="6.48888">
        <ele>77</ele>
        <time>2016-05-25T10:10:22Z</time>
      </trkpt>
      <trkpt lat="43.23403" lon="6.48869">
        <ele>74</ele>
        <time>2016-05-25T10:11:02Z</time>
      </trkpt>
      <trkpt lat="43.23425" lon="6.48863">
        <ele>59</ele>
        <time>2016-05-25T10:12:14Z</time>
      </trkpt>
      <trkpt lat="43.23449" lon="6.48865">
        <ele>59</ele>
        <time>2016-05-25T10:12:39Z</time>
      </trkpt>
      <trkpt lat="43.23469" lon="6.4885">
        <ele>58</ele>
        <time>2016-05-25T10:12:59Z</time>
      </trkpt>
      <trkpt lat="43.23469" lon="6.48818">
        <ele>58</ele>
        <time>2016-05-25T10:13:22Z</time>
      </trkpt>
      <trkpt lat="43.2349" lon="6.48829">
        <ele>56</ele>
        <time>2016-05-25T10:14:02Z</time>
      </trkpt>
      <trkpt lat="43.23505" lon="6.48852">
        <ele>54</ele>
        <time>2016-05-25T10:14:24Z</time>
      </trkpt>
      <trkpt lat="43.23519" lon="6.48877">
        <ele>54</ele>
        <time>2016-05-25T10:15:09Z</time>
      </trkpt>
      <trkpt lat="43.23559" lon="6.48908">
        <ele>54</ele>
        <time>2016-05-25T10:15:46Z</time>
      </trkpt>
      <trkpt lat="43.2359" lon="6.48953">
        <ele>53</ele>
        <time>2016-05-25T10:16:27Z</time>
      </trkpt>
      <trkpt lat="43.2362" lon="6.49002">
        <ele>52</ele>
        <time>2016-05-25T10:17:07Z</time>
      </trkpt>
      <trkpt lat="43.23635" lon="6.49062">
        <ele>50</ele>
        <time>2016-05-25T10:17:48Z</time>
      </trkpt>
      <trkpt lat="43.23652" lon="6.49119">
        <ele>50</ele>
        <time>2016-05-25T10:18:26Z</time>
      </trkpt>
      <trkpt lat="43.23673" lon="6.4913">
        <ele>50</ele>
        <time>2016-05-25T10:18:43Z</time>
      </trkpt>
      <trkpt lat="43.23691" lon="6.4915">
        <ele>49</ele>
        <time>2016-05-25T10:19:01Z</time>
      </trkpt>
      <trkpt lat="43.23721" lon="6.49198">
        <ele>49</ele>
        <time>2016-05-25T10:19:40Z</time>
      </trkpt>
      <trkpt lat="43.23743" lon="6.49213">
        <ele>40</ele>
        <time>2016-05-25T10:21:04Z</time>
      </trkpt>
      <trkpt lat="43.23762" lon="6.49228">
        <ele>42</ele>
        <time>2016-05-25T10:21:20Z</time>
      </trkpt>
      <trkpt lat="43.23783" lon="6.4924">
        <ele>41</ele>
        <time>2016-05-25T10:21:34Z</time>
      </trkpt>
      <trkpt lat="43.23805" lon="6.49252">
        <ele>43</ele>
        <time>2016-05-25T10:21:49Z</time>
      </trkpt>
      <trkpt lat="43.23828" lon="6.49255">
        <ele>41</ele>
        <time>2016-05-25T10:22:31Z</time>
      </trkpt>
      <trkpt lat="43.23846" lon="6.49235">
        <ele>40</ele>
        <time>2016-05-25T10:23:05Z</time>
      </trkpt>
      <trkpt lat="43.23886" lon="6.49261">
        <ele>41</ele>
        <time>2016-05-25T10:23:50Z</time>
      </trkpt>
      <trkpt lat="43.23909" lon="6.49265">
        <ele>42</ele>
        <time>2016-05-25T10:24:11Z</time>
      </trkpt>
      <trkpt lat="43.23927" lon="6.49284">
        <ele>42</ele>
        <time>2016-05-25T10:24:31Z</time>
      </trkpt>
      <trkpt lat="43.23964" lon="6.49322">
        <ele>42</ele>
        <time>2016-05-25T10:25:08Z</time>
      </trkpt>
      <trkpt lat="43.23984" lon="6.49339">
        <ele>42</ele>
        <time>2016-05-25T10:25:27Z</time>
      </trkpt>
      <trkpt lat="43.23998" lon="6.49316">
        <ele>43</ele>
        <time>2016-05-25T10:26:03Z</time>
      </trkpt>
      <trkpt lat="43.24014" lon="6.49291">
        <ele>43</ele>
        <time>2016-05-25T10:26:25Z</time>
      </trkpt>
      <trkpt lat="43.24034" lon="6.49278">
        <ele>43</ele>
        <time>2016-05-25T10:26:45Z</time>
      </trkpt>
      <trkpt lat="43.24051" lon="6.49255">
        <ele>44</ele>
        <time>2016-05-25T10:27:06Z</time>
      </trkpt>
      <trkpt lat="43.24084" lon="6.49211">
        <ele>45</ele>
        <time>2016-05-25T10:27:47Z</time>
      </trkpt>
      <trkpt lat="43.24101" lon="6.4919">
        <ele>46</ele>
        <time>2016-05-25T10:28:08Z</time>
      </trkpt>
      <trkpt lat="43.24124" lon="6.49193">
        <ele>46</ele>
        <time>2016-05-25T10:28:29Z</time>
      </trkpt>
      <trkpt lat="43.24147" lon="6.49192">
        <ele>46</ele>
        <time>2016-05-25T10:28:52Z</time>
      </trkpt>
      <trkpt lat="43.24164" lon="6.4917">
        <ele>46</ele>
        <time>2016-05-25T10:29:11Z</time>
      </trkpt>
      <trkpt lat="43.24181" lon="6.49147">
        <ele>54</ele>
        <time>2016-05-25T10:34:35Z</time>
      </trkpt>
      <trkpt lat="43.24196" lon="6.49123">
        <ele>49</ele>
        <time>2016-05-25T10:34:59Z</time>
      </trkpt>
      <trkpt lat="43.24212" lon="6.49101">
        <ele>48</ele>
        <time>2016-05-25T10:35:20Z</time>
      </trkpt>
      <trkpt lat="43.24243" lon="6.49056">
        <ele>50</ele>
        <time>2016-05-25T10:36:16Z</time>
      </trkpt>
      <trkpt lat="43.24259" lon="6.49033">
        <ele>50</ele>
        <time>2016-05-25T10:36:36Z</time>
      </trkpt>
      <trkpt lat="43.24273" lon="6.49009">
        <ele>49</ele>
        <time>2016-05-25T11:18:23Z</time>
      </trkpt>
      <trkpt lat="43.24288" lon="6.48986">
        <ele>49</ele>
        <time>2016-05-25T11:18:54Z</time>
      </trkpt>
      <trkpt lat="43.24314" lon="6.48934">
        <ele>51</ele>
        <time>2016-05-25T11:19:40Z</time>
      </trkpt>
      <trkpt lat="43.2431" lon="6.48904">
        <ele>51</ele>
        <time>2016-05-25T11:20:21Z</time>
      </trkpt>
      <trkpt lat="43.24292" lon="6.48883">
        <ele>57</ele>
        <time>2016-05-25T11:22:12Z</time>
      </trkpt>
      <trkpt lat="43.24277" lon="6.4886">
        <ele>54</ele>
        <time>2016-05-25T11:22:33Z</time>
      </trkpt>
      <trkpt lat="43.24261" lon="6.48838">
        <ele>54</ele>
        <time>2016-05-25T11:22:56Z</time>
      </trkpt>
      <trkpt lat="43.24225" lon="6.48796">
        <ele>57</ele>
        <time>2016-05-25T11:23:42Z</time>
      </trkpt>
      <trkpt lat="43.24207" lon="6.48776">
        <ele>59</ele>
        <time>2016-05-25T11:24:03Z</time>
      </trkpt>
      <trkpt lat="43.24185" lon="6.48767">
        <ele>59</ele>
        <time>2016-05-25T11:24:26Z</time>
      </trkpt>
      <trkpt lat="43.24179" lon="6.48736">
        <ele>60</ele>
        <time>2016-05-25T11:24:53Z</time>
      </trkpt>
      <trkpt lat="43.24184" lon="6.48673">
        <ele>62</ele>
        <time>2016-05-25T11:25:37Z</time>
      </trkpt>
      <trkpt lat="43.24174" lon="6.48645">
        <ele>63</ele>
        <time>2016-05-25T11:26:00Z</time>
      </trkpt>
      <trkpt lat="43.24157" lon="6.48624">
        <ele>64</ele>
        <time>2016-05-25T11:26:25Z</time>
      </trkpt>
      <trkpt lat="43.24119" lon="6.48588">
        <ele>66</ele>
        <time>2016-05-25T11:27:08Z</time>
      </trkpt>
      <trkpt lat="43.24078" lon="6.48561">
        <ele>69</ele>
        <time>2016-05-25T11:27:49Z</time>
      </trkpt>
      <trkpt lat="43.24059" lon="6.48544">
        <ele>70</ele>
        <time>2016-05-25T11:28:08Z</time>
      </trkpt>
      <trkpt lat="43.24044" lon="6.4852">
        <ele>71</ele>
        <time>2016-05-25T11:28:29Z</time>
      </trkpt>
      <trkpt lat="43.24025" lon="6.48463">
        <ele>73</ele>
        <time>2016-05-25T11:29:10Z</time>
      </trkpt>
      <trkpt lat="43.24009" lon="6.4844">
        <ele>74</ele>
        <time>2016-05-25T11:29:28Z</time>
      </trkpt>
      <trkpt lat="43.23989" lon="6.48426">
        <ele>75</ele>
        <time>2016-05-25T11:29:45Z</time>
      </trkpt>
      <trkpt lat="43.23974" lon="6.48403">
        <ele>76</ele>
        <time>2016-05-25T11:30:19Z</time>
      </trkpt>
      <trkpt lat="43.23947" lon="6.48352">
        <ele>78</ele>
        <time>2016-05-25T11:30:59Z</time>
      </trkpt>
      <trkpt lat="43.23906" lon="6.48307">
        <ele>80</ele>
        <time>2016-05-25T11:31:46Z</time>
      </trkpt>
      <trkpt lat="43.2388" lon="6.48302">
        <ele>81</ele>
        <time>2016-05-25T11:32:05Z</time>
      </trkpt>
      <trkpt lat="43.23856" lon="6.48305">
        <ele>82</ele>
        <time>2016-05-25T11:32:26Z</time>
      </trkpt>
      <trkpt lat="43.23811" lon="6.4832">
        <ele>84</ele>
        <time>2016-05-25T11:33:13Z</time>
      </trkpt>
      <trkpt lat="43.23788" lon="6.48323">
        <ele>84</ele>
        <time>2016-05-25T11:33:43Z</time>
      </trkpt>
      <trkpt lat="43.23765" lon="6.48323">
        <ele>86</ele>
        <time>2016-05-25T11:33:59Z</time>
      </trkpt>
      <trkpt lat="43.23721" lon="6.48303">
        <ele>90</ele>
        <time>2016-05-25T11:34:37Z</time>
      </trkpt>
      <trkpt lat="43.23699" lon="6.48294">
        <ele>91</ele>
        <time>2016-05-25T11:34:58Z</time>
      </trkpt>
      <trkpt lat="43.23684" lon="6.4827">
        <ele>92</ele>
        <time>2016-05-25T11:35:20Z</time>
      </trkpt>
      <trkpt lat="43.23683" lon="6.48239">
        <ele>104</ele>
        <time>2016-05-25T11:37:56Z</time>
      </trkpt>
      <trkpt lat="43.23692" lon="6.4821">
        <ele>112</ele>
        <time>2016-05-25T11:38:35Z</time>
      </trkpt>
      <trkpt lat="43.23712" lon="6.48196">
        <ele>111</ele>
        <time>2016-05-25T11:38:58Z</time>
      </trkpt>
      <trkpt lat="43.23705" lon="6.48167">
        <ele>111</ele>
        <time>2016-05-25T11:39:23Z</time>
      </trkpt>
      <trkpt lat="43.23691" lon="6.48142">
        <ele>113</ele>
        <time>2016-05-25T11:39:52Z</time>
      </trkpt>
      <trkpt lat="43.23711" lon="6.48127">
        <ele>116</ele>
        <time>2016-05-25T11:40:36Z</time>
      </trkpt>
      <trkpt lat="43.23757" lon="6.48125">
        <ele>119</ele>
        <time>2016-05-25T11:41:26Z</time>
      </trkpt>
      <trkpt lat="43.23778" lon="6.48112">
        <ele>120</ele>
        <time>2016-05-25T11:41:50Z</time>
      </trkpt>
      <trkpt lat="43.23792" lon="6.48087">
        <ele>122</ele>
        <time>2016-05-25T11:42:15Z</time>
      </trkpt>
      <trkpt lat="43.23789" lon="6.48057">
        <ele>124</ele>
        <time>2016-05-25T11:42:38Z</time>
      </trkpt>
      <trkpt lat="43.23788" lon="6.47995">
        <ele>128</ele>
        <time>2016-05-25T11:43:33Z</time>
      </trkpt>
      <trkpt lat="43.23795" lon="6.4796">
        <ele>137</ele>
        <time>2016-05-25T11:45:30Z</time>
      </trkpt>
      <trkpt lat="43.23802" lon="6.47898">
        <ele>152</ele>
        <time>2016-05-25T11:46:18Z</time>
      </trkpt>
      <trkpt lat="43.23792" lon="6.4787">
        <ele>153</ele>
        <time>2016-05-25T11:46:42Z</time>
      </trkpt>
      <trkpt lat="43.23782" lon="6.47842">
        <ele>155</ele>
        <time>2016-05-25T11:47:10Z</time>
      </trkpt>
      <trkpt lat="43.23762" lon="6.47786">
        <ele>158</ele>
        <time>2016-05-25T11:47:54Z</time>
      </trkpt>
      <trkpt lat="43.23735" lon="6.47736">
        <ele>160</ele>
        <time>2016-05-25T11:48:44Z</time>
      </trkpt>
      <trkpt lat="43.23718" lon="6.47716">
        <ele>162</ele>
        <time>2016-05-25T11:49:17Z</time>
      </trkpt>
      <trkpt lat="43.23726" lon="6.47687">
        <ele>165</ele>
        <time>2016-05-25T11:49:47Z</time>
      </trkpt>
      <trkpt lat="43.23741" lon="6.47663">
        <ele>167</ele>
        <time>2016-05-25T11:50:08Z</time>
      </trkpt>
      <trkpt lat="43.23722" lon="6.47648">
        <ele>170</ele>
        <time>2016-05-25T11:50:43Z</time>
      </trkpt>
      <trkpt lat="43.23735" lon="6.47623">
        <ele>172</ele>
        <time>2016-05-25T11:51:31Z</time>
      </trkpt>
      <trkpt lat="43.23739" lon="6.47593">
        <ele>175</ele>
        <time>2016-05-25T11:51:56Z</time>
      </trkpt>
      <trkpt lat="43.23736" lon="6.47562">
        <ele>177</ele>
        <time>2016-05-25T11:52:33Z</time>
      </trkpt>
      <trkpt lat="43.23749" lon="6.47536">
        <ele>212</ele>
        <time>2016-05-25T11:55:39Z</time>
      </trkpt>
      <trkpt lat="43.23757" lon="6.47507">
        <ele>210</ele>
        <time>2016-05-25T11:56:19Z</time>
      </trkpt>
      <trkpt lat="43.23769" lon="6.47479">
        <ele>213</ele>
        <time>2016-05-25T11:56:50Z</time>
      </trkpt>
      <trkpt lat="43.23786" lon="6.47421">
        <ele>216</ele>
        <time>2016-05-25T11:57:42Z</time>
      </trkpt>
      <trkpt lat="43.23799" lon="6.47395">
        <ele>218</ele>
        <time>2016-05-25T11:58:09Z</time>
      </trkpt>
      <trkpt lat="43.23802" lon="6.47364">
        <ele>219</ele>
        <time>2016-05-25T11:58:28Z</time>
      </trkpt>
      <trkpt lat="43.23808" lon="6.47335">
        <ele>218</ele>
        <time>2016-05-25T11:58:50Z</time>
      </trkpt>
      <trkpt lat="43.2381" lon="6.47303">
        <ele>219</ele>
        <time>2016-05-25T11:59:12Z</time>
      </trkpt>
      <trkpt lat="43.23809" lon="6.4727">
        <ele>220</ele>
        <time>2016-05-25T11:59:54Z</time>
      </trkpt>
      <trkpt lat="43.23808" lon="6.47239">
        <ele>220</ele>
        <time>2016-05-25T12:00:18Z</time>
      </trkpt>
      <trkpt lat="43.23818" lon="6.47211">
        <ele>222</ele>
        <time>2016-05-25T12:00:44Z</time>
      </trkpt>
      <trkpt lat="43.23836" lon="6.47153">
        <ele>225</ele>
        <time>2016-05-25T12:01:31Z</time>
      </trkpt>
      <trkpt lat="43.23851" lon="6.47093">
        <ele>227</ele>
        <time>2016-05-25T12:02:14Z</time>
      </trkpt>
      <trkpt lat="43.23861" lon="6.47065">
        <ele>229</ele>
        <time>2016-05-25T12:02:38Z</time>
      </trkpt>
      <trkpt lat="43.23893" lon="6.47021">
        <ele>231</ele>
        <time>2016-05-25T12:03:20Z</time>
      </trkpt>
      <trkpt lat="43.23918" lon="6.46967">
        <ele>234</ele>
        <time>2016-05-25T12:04:01Z</time>
      </trkpt>
      <trkpt lat="43.23939" lon="6.46913">
        <ele>236</ele>
        <time>2016-05-25T12:04:40Z</time>
      </trkpt>
      <trkpt lat="43.23955" lon="6.46854">
        <ele>237</ele>
        <time>2016-05-25T12:05:20Z</time>
      </trkpt>
      <trkpt lat="43.23974" lon="6.46796">
        <ele>240</ele>
        <time>2016-05-25T12:06:07Z</time>
      </trkpt>
      <trkpt lat="43.2398" lon="6.46766">
        <ele>241</ele>
        <time>2016-05-25T12:06:28Z</time>
      </trkpt>
      <trkpt lat="43.23979" lon="6.46735">
        <ele>241</ele>
        <time>2016-05-25T12:06:47Z</time>
      </trkpt>
      <trkpt lat="43.23969" lon="6.46706">
        <ele>242</ele>
        <time>2016-05-25T12:07:07Z</time>
      </trkpt>
      <trkpt lat="43.23934" lon="6.46665">
        <ele>245</ele>
        <time>2016-05-25T12:08:10Z</time>
      </trkpt>
      <trkpt lat="43.23943" lon="6.46635">
        <ele>247</ele>
        <time>2016-05-25T12:08:36Z</time>
      </trkpt>
      <trkpt lat="43.23957" lon="6.4661">
        <ele>249</ele>
        <time>2016-05-25T12:09:00Z</time>
      </trkpt>
      <trkpt lat="43.23965" lon="6.4658">
        <ele>250</ele>
        <time>2016-05-25T12:09:23Z</time>
      </trkpt>
      <trkpt lat="43.2396" lon="6.4655">
        <ele>252</ele>
        <time>2016-05-25T12:09:45Z</time>
      </trkpt>
      <trkpt lat="43.23956" lon="6.46487">
        <ele>256</ele>
        <time>2016-05-25T12:10:28Z</time>
      </trkpt>
      <trkpt lat="43.23949" lon="6.46425">
        <ele>259</ele>
        <time>2016-05-25T12:11:12Z</time>
      </trkpt>
      <trkpt lat="43.23963" lon="6.46399">
        <ele>261</ele>
        <time>2016-05-25T12:11:36Z</time>
      </trkpt>
      <trkpt lat="43.23946" lon="6.46376">
        <ele>274</ele>
        <time>2016-05-25T12:15:30Z</time>
      </trkpt>
      <trkpt lat="43.239" lon="6.46381">
        <ele>274</ele>
        <time>2016-05-25T12:16:24Z</time>
      </trkpt>
      <trkpt lat="43.23879" lon="6.4639">
        <ele>274</ele>
        <time>2016-05-25T12:16:46Z</time>
      </trkpt>
      <trkpt lat="43.23861" lon="6.46411">
        <ele>272</ele>
        <time>2016-05-25T12:17:07Z</time>
      </trkpt>
      <trkpt lat="43.23846" lon="6.46434">
        <ele>266</ele>
        <time>2016-05-25T12:18:16Z</time>
      </trkpt>
      <trkpt lat="43.23831" lon="6.46458">
        <ele>267</ele>
        <time>2016-05-25T12:18:44Z</time>
      </trkpt>
      <trkpt lat="43.23813" lon="6.46478">
        <ele>265</ele>
        <time>2016-05-25T12:19:04Z</time>
      </trkpt>
      <trkpt lat="43.23768" lon="6.46498">
        <ele>265</ele>
        <time>2016-05-25T12:19:42Z</time>
      </trkpt>
      <trkpt lat="43.23749" lon="6.46518">
        <ele>263</ele>
        <time>2016-05-25T12:20:00Z</time>
      </trkpt>
      <trkpt lat="43.23731" lon="6.46538">
        <ele>263</ele>
        <time>2016-05-25T12:20:19Z</time>
      </trkpt>
      <trkpt lat="43.23717" lon="6.46563">
        <ele>262</ele>
        <time>2016-05-25T12:20:38Z</time>
      </trkpt>
      <trkpt lat="43.23678" lon="6.46599">
        <ele>261</ele>
        <time>2016-05-25T12:21:17Z</time>
      </trkpt>
      <trkpt lat="43.23656" lon="6.46604">
        <ele>260</ele>
        <time>2016-05-25T12:21:37Z</time>
      </trkpt>
      <trkpt lat="43.23634" lon="6.46592">
        <ele>259</ele>
        <time>2016-05-25T12:21:57Z</time>
      </trkpt>
      <trkpt lat="43.23589" lon="6.46594">
        <ele>256</ele>
        <time>2016-05-25T12:22:36Z</time>
      </trkpt>
      <trkpt lat="43.23566" lon="6.46588">
        <ele>255</ele>
        <time>2016-05-25T12:22:56Z</time>
      </trkpt>
      <trkpt lat="43.23549" lon="6.46566">
        <ele>254</ele>
        <time>2016-05-25T12:23:27Z</time>
      </trkpt>
      <trkpt lat="43.23538" lon="6.46505">
        <ele>251</ele>
        <time>2016-05-25T12:24:08Z</time>
      </trkpt>
      <trkpt lat="43.23515" lon="6.46494">
        <ele>249</ele>
        <time>2016-05-25T12:24:28Z</time>
      </trkpt>
      <trkpt lat="43.23493" lon="6.46483">
        <ele>248</ele>
        <time>2016-05-25T12:24:50Z</time>
      </trkpt>
      <trkpt lat="43.2347" lon="6.46487">
        <ele>245</ele>
        <time>2016-05-25T12:25:19Z</time>
      </trkpt>
      <trkpt lat="43.23454" lon="6.4651">
        <ele>244</ele>
        <time>2016-05-25T12:25:39Z</time>
      </trkpt>
      <trkpt lat="43.2343" lon="6.46563">
        <ele>242</ele>
        <time>2016-05-25T12:26:20Z</time>
      </trkpt>
      <trkpt lat="43.23406" lon="6.46617">
        <ele>241</ele>
        <time>2016-05-25T12:27:09Z</time>
      </trkpt>
      <trkpt lat="43.23381" lon="6.46669">
        <ele>240</ele>
        <time>2016-05-25T12:27:48Z</time>
      </trkpt>
      <trkpt lat="43.23357" lon="6.46727">
        <ele>238</ele>
        <time>2016-05-25T12:28:28Z</time>
      </trkpt>
      <trkpt lat="43.23344" lon="6.46751">
        <ele>238</ele>
        <time>2016-05-25T12:28:46Z</time>
      </trkpt>
      <trkpt lat="43.23306" lon="6.46788">
        <ele>236</ele>
        <time>2016-05-25T12:29:31Z</time>
      </trkpt>
      <trkpt lat="43.23293" lon="6.46816">
        <ele>235</ele>
        <time>2016-05-25T12:29:52Z</time>
      </trkpt>
      <trkpt lat="43.23272" lon="6.46828">
        <ele>233</ele>
        <time>2016-05-25T12:30:14Z</time>
      </trkpt>
      <trkpt lat="43.2325" lon="6.46816">
        <ele>232</ele>
        <time>2016-05-25T12:30:36Z</time>
      </trkpt>
      <trkpt lat="43.2321" lon="6.46783">
        <ele>227</ele>
        <time>2016-05-25T12:31:21Z</time>
      </trkpt>
      <trkpt lat="43.23167" lon="6.46767">
        <ele>224</ele>
        <time>2016-05-25T12:32:01Z</time>
      </trkpt>
      <trkpt lat="43.23144" lon="6.46761">
        <ele>223</ele>
        <time>2016-05-25T12:32:22Z</time>
      </trkpt>
      <trkpt lat="43.23122" lon="6.46769">
        <ele>222</ele>
        <time>2016-05-25T12:32:43Z</time>
      </trkpt>
      <trkpt lat="43.23103" lon="6.46789">
        <ele>220</ele>
        <time>2016-05-25T12:33:03Z</time>
      </trkpt>
      <trkpt lat="43.23077" lon="6.46841">
        <ele>217</ele>
        <time>2016-05-25T12:33:43Z</time>
      </trkpt>
      <trkpt lat="43.23048" lon="6.4689">
        <ele>214</ele>
        <time>2016-05-25T12:34:20Z</time>
      </trkpt>
      <trkpt lat="43.23017" lon="6.46935">
        <ele>212</ele>
        <time>2016-05-25T12:35:01Z</time>
      </trkpt>
      <trkpt lat="43.22976" lon="6.46965">
        <ele>211</ele>
        <time>2016-05-25T12:35:44Z</time>
      </trkpt>
      <trkpt lat="43.22956" lon="6.46979">
        <ele>212</ele>
        <time>2016-05-25T12:36:04Z</time>
      </trkpt>
      <trkpt lat="43.22939" lon="6.47001">
        <ele>211</ele>
        <time>2016-05-25T12:36:34Z</time>
      </trkpt>
      <trkpt lat="43.22917" lon="6.47011">
        <ele>212</ele>
        <time>2016-05-25T12:36:56Z</time>
      </trkpt>
      <trkpt lat="43.22872" lon="6.47016">
        <ele>214</ele>
        <time>2016-05-25T12:37:36Z</time>
      </trkpt>
      <trkpt lat="43.22853" lon="6.47022">
        <ele>215</ele>
        <time>2016-05-25T12:38:02Z</time>
      </trkpt>
      <trkpt lat="43.22811" lon="6.47048">
        <ele>214</ele>
        <time>2016-05-25T12:38:48Z</time>
      </trkpt>
      <trkpt lat="43.22771" lon="6.47084">
        <ele>216</ele>
        <time>2016-05-25T12:40:13Z</time>
      </trkpt>
      <trkpt lat="43.22751" lon="6.471">
        <ele>215</ele>
        <time>2016-05-25T12:40:33Z</time>
      </trkpt>
      <trkpt lat="43.2271" lon="6.4713">
        <ele>218</ele>
        <time>2016-05-25T12:41:14Z</time>
      </trkpt>
      <trkpt lat="43.22697" lon="6.47157">
        <ele>218</ele>
        <time>2016-05-25T12:41:34Z</time>
      </trkpt>
      <trkpt lat="43.22684" lon="6.47219">
        <ele>217</ele>
        <time>2016-05-25T12:42:17Z</time>
      </trkpt>
      <trkpt lat="43.22686" lon="6.47282">
        <ele>218</ele>
        <time>2016-05-25T12:42:56Z</time>
      </trkpt>
      <trkpt lat="43.2268" lon="6.47312">
        <ele>217</ele>
        <time>2016-05-25T12:43:30Z</time>
      </trkpt>
      <trkpt lat="43.22666" lon="6.47372">
        <ele>217</ele>
        <time>2016-05-25T12:44:18Z</time>
      </trkpt>
      <trkpt lat="43.22648" lon="6.47431">
        <ele>215</ele>
        <time>2016-05-25T12:45:01Z</time>
      </trkpt>
      <trkpt lat="43.22643" lon="6.47461">
        <ele>215</ele>
        <time>2016-05-25T12:45:21Z</time>
      </trkpt>
      <trkpt lat="43.22645" lon="6.47523">
        <ele>214</ele>
        <time>2016-05-25T12:45:58Z</time>
      </trkpt>
      <trkpt lat="43.22639" lon="6.47554">
        <ele>213</ele>
        <time>2016-05-25T12:46:19Z</time>
      </trkpt>
      <trkpt lat="43.22621" lon="6.47611">
        <ele>211</ele>
        <time>2016-05-25T12:46:59Z</time>
      </trkpt>
      <trkpt lat="43.22598" lon="6.47613">
        <ele>210</ele>
        <time>2016-05-25T12:47:21Z</time>
      </trkpt>
      <trkpt lat="43.22555" lon="6.47632">
        <ele>208</ele>
        <time>2016-05-25T12:47:58Z</time>
      </trkpt>
      <trkpt lat="43.2251" lon="6.47649">
        <ele>206</ele>
        <time>2016-05-25T12:48:48Z</time>
      </trkpt>
      <trkpt lat="43.22489" lon="6.4766">
        <ele>204</ele>
        <time>2016-05-25T12:49:07Z</time>
      </trkpt>
      <trkpt lat="43.2247" lon="6.4768">
        <ele>203</ele>
        <time>2016-05-25T12:49:29Z</time>
      </trkpt>
      <trkpt lat="43.22458" lon="6.47707">
        <ele>202</ele>
        <time>2016-05-25T12:49:49Z</time>
      </trkpt>
      <trkpt lat="43.22453" lon="6.47736">
        <ele>201</ele>
        <time>2016-05-25T12:50:11Z</time>
      </trkpt>
      <trkpt lat="43.22434" lon="6.47753">
        <ele>201</ele>
        <time>2016-05-25T12:50:34Z</time>
      </trkpt>
      <trkpt lat="43.22412" lon="6.4776">
        <ele>199</ele>
        <time>2016-05-25T12:50:58Z</time>
      </trkpt>
      <trkpt lat="43.22366" lon="6.47765">
        <ele>197</ele>
        <time>2016-05-25T12:51:36Z</time>
      </trkpt>
      <trkpt lat="43.22344" lon="6.4776">
        <ele>196</ele>
        <time>2016-05-25T12:51:56Z</time>
      </trkpt>
      <trkpt lat="43.2232" lon="6.47758">
        <ele>183</ele>
        <time>2016-05-25T12:53:30Z</time>
      </trkpt>
      <trkpt lat="43.22297" lon="6.47756">
        <ele>182</ele>
        <time>2016-05-25T12:53:51Z</time>
      </trkpt>
      <trkpt lat="43.22251" lon="6.47757">
        <ele>176</ele>
        <time>2016-05-25T12:54:27Z</time>
      </trkpt>
      <trkpt lat="43.22228" lon="6.47763">
        <ele>175</ele>
        <time>2016-05-25T12:54:47Z</time>
      </trkpt>
      <trkpt lat="43.22184" lon="6.47778">
        <ele>174</ele>
        <time>2016-05-25T12:55:30Z</time>
      </trkpt>
      <trkpt lat="43.22161" lon="6.47782">
        <ele>174</ele>
        <time>2016-05-25T12:55:51Z</time>
      </trkpt>
      <trkpt lat="43.2214" lon="6.47792">
        <ele>173</ele>
        <time>2016-05-25T12:56:11Z</time>
      </trkpt>
      <trkpt lat="43.22101" lon="6.47824">
        <ele>170</ele>
        <time>2016-05-25T12:56:50Z</time>
      </trkpt>
      <trkpt lat="43.22063" lon="6.47859">
        <ele>167</ele>
        <time>2016-05-25T12:57:31Z</time>
      </trkpt>
      <trkpt lat="43.22021" lon="6.47888">
        <ele>164</ele>
        <time>2016-05-25T12:58:10Z</time>
      </trkpt>
      <trkpt lat="43.21981" lon="6.47918">
        <ele>161</ele>
        <time>2016-05-25T12:58:52Z</time>
      </trkpt>
      <trkpt lat="43.21959" lon="6.47908">
        <ele>160</ele>
        <time>2016-05-25T12:59:18Z</time>
      </trkpt>
      <trkpt lat="43.21928" lon="6.47861">
        <ele>157</ele>
        <time>2016-05-25T12:59:58Z</time>
      </trkpt>
      <trkpt lat="43.21907" lon="6.47852">
        <ele>155</ele>
        <time>2016-05-25T13:00:29Z</time>
      </trkpt>
      <trkpt lat="43.21869" lon="6.47817">
        <ele>152</ele>
        <time>2016-05-25T13:01:08Z</time>
      </trkpt>
      <trkpt lat="43.21841" lon="6.47768">
        <ele>149</ele>
        <time>2016-05-25T13:01:51Z</time>
      </trkpt>
      <trkpt lat="43.21803" lon="6.47733">
        <ele>145</ele>
        <time>2016-05-25T13:02:29Z</time>
      </trkpt>
      <trkpt lat="43.21783" lon="6.47718">
        <ele>143</ele>
        <time>2016-05-25T13:02:51Z</time>
      </trkpt>
      <trkpt lat="43.2176" lon="6.47711">
        <ele>141</ele>
        <time>2016-05-25T13:03:10Z</time>
      </trkpt>
      <trkpt lat="43.21737" lon="6.47712">
        <ele>122</ele>
        <time>2016-05-25T13:05:15Z</time>
      </trkpt>
      <trkpt lat="43.2172" lon="6.47734">
        <ele>117</ele>
        <time>2016-05-25T13:05:39Z</time>
      </trkpt>
      <trkpt lat="43.21697" lon="6.47737">
        <ele>119</ele>
        <time>2016-05-25T13:06:03Z</time>
      </trkpt>
      <trkpt lat="43.21679" lon="6.47717">
        <ele>118</ele>
        <time>2016-05-25T13:06:23Z</time>
      </trkpt>
      <trkpt lat="43.21642" lon="6.4768">
        <ele>117</ele>
        <time>2016-05-25T13:07:00Z</time>
      </trkpt>
      <trkpt lat="43.21624" lon="6.4766">
        <ele>115</ele>
        <time>2016-05-25T13:07:31Z</time>
      </trkpt>
      <trkpt lat="43.21584" lon="6.47629">
        <ele>114</ele>
        <time>2016-05-25T13:08:07Z</time>
      </trkpt>
      <trkpt lat="43.21561" lon="6.47623">
        <ele>113</ele>
        <time>2016-05-25T13:08:24Z</time>
      </trkpt>
      <trkpt lat="43.21515" lon="6.47625">
        <ele>111</ele>
        <time>2016-05-25T13:09:00Z</time>
      </trkpt>
      <trkpt lat="43.2147" lon="6.4761">
        <ele>109</ele>
        <time>2016-05-25T13:09:38Z</time>
      </trkpt>
      <trkpt lat="43.21448" lon="6.47602">
        <ele>109</ele>
        <time>2016-05-25T13:09:56Z</time>
      </trkpt>
      <trkpt lat="43.21424" lon="6.47605">
        <ele>107</ele>
        <time>2016-05-25T13:10:14Z</time>
      </trkpt>
      <trkpt lat="43.21407" lon="6.47627">
        <ele>105</ele>
        <time>2016-05-25T13:10:31Z</time>
      </trkpt>
      <trkpt lat="43.21408" lon="6.47659">
        <ele>103</ele>
        <time>2016-05-25T13:10:50Z</time>
      </trkpt>
      <trkpt lat="43.21427" lon="6.47716">
        <ele>100</ele>
        <time>2016-05-25T13:11:26Z</time>
      </trkpt>
      <trkpt lat="43.21435" lon="6.47746">
        <ele>99</ele>
        <time>2016-05-25T13:11:44Z</time>
      </trkpt>
      <trkpt lat="43.21439" lon="6.47809">
        <ele>96</ele>
        <time>2016-05-25T13:12:24Z</time>
      </trkpt>
      <trkpt lat="43.21441" lon="6.4784">
        <ele>95</ele>
        <time>2016-05-25T13:12:43Z</time>
      </trkpt>
      <trkpt lat="43.21418" lon="6.47842">
        <ele>93</ele>
        <time>2016-05-25T13:13:13Z</time>
      </trkpt>
      <trkpt lat="43.21402" lon="6.47817">
        <ele>95</ele>
        <time>2016-05-25T13:14:16Z</time>
      </trkpt>
      <trkpt lat="43.21386" lon="6.47795">
        <ele>78</ele>
        <time>2016-05-25T13:14:33Z</time>
      </trkpt>
      <trkpt lat="43.21364" lon="6.4778">
        <ele>79</ele>
        <time>2016-05-25T13:14:55Z</time>
      </trkpt>
      <trkpt lat="43.21343" lon="6.47766">
        <ele>78</ele>
        <time>2016-05-25T13:15:12Z</time>
      </trkpt>
      <trkpt lat="43.21307" lon="6.47724">
        <ele>79</ele>
        <time>2016-05-25T13:15:49Z</time>
      </trkpt>
      <trkpt lat="43.21287" lon="6.47709">
        <ele>80</ele>
        <time>2016-05-25T13:16:08Z</time>
      </trkpt>
      <trkpt lat="43.21266" lon="6.47699">
        <ele>83</ele>
        <time>2016-05-25T13:19:27Z</time>
      </trkpt>
      <trkpt lat="43.21246" lon="6.47682">
        <ele>80</ele>
        <time>2016-05-25T13:20:56Z</time>
      </trkpt>
      <trkpt lat="43.21235" lon="6.47654">
        <ele>81</ele>
        <time>2016-05-25T13:21:16Z</time>
      </trkpt>
      <trkpt lat="43.21221" lon="6.47594">
        <ele>78</ele>
        <time>2016-05-25T13:21:57Z</time>
      </trkpt>
      <trkpt lat="43.21209" lon="6.47532">
        <ele>78</ele>
        <time>2016-05-25T13:22:37Z</time>
      </trkpt>
      <trkpt lat="43.21188" lon="6.47475">
        <ele>79</ele>
        <time>2016-05-25T13:23:17Z</time>
      </trkpt>
      <trkpt lat="43.21165" lon="6.4742">
        <ele>79</ele>
        <time>2016-05-25T13:23:58Z</time>
      </trkpt>
      <trkpt lat="43.21147" lon="6.47399">
        <ele>84</ele>
        <time>2016-05-25T13:25:07Z</time>
      </trkpt>
      <trkpt lat="43.21138" lon="6.4737">
        <ele>78</ele>
        <time>2016-05-25T13:25:30Z</time>
      </trkpt>
      <trkpt lat="43.21134" lon="6.47339">
        <ele>79</ele>
        <time>2016-05-25T13:25:51Z</time>
      </trkpt>
      <trkpt lat="43.21121" lon="6.47313">
        <ele>78</ele>
        <time>2016-05-25T13:26:12Z</time>
      </trkpt>
      <trkpt lat="43.21089" lon="6.47266">
        <ele>76</ele>
        <time>2016-05-25T13:26:53Z</time>
      </trkpt>
      <trkpt lat="43.2107" lon="6.47209">
        <ele>74</ele>
        <time>2016-05-25T13:27:33Z</time>
      </trkpt>
      <trkpt lat="43.21045" lon="6.47158">
        <ele>72</ele>
        <time>2016-05-25T13:28:24Z</time>
      </trkpt>
      <trkpt lat="43.21051" lon="6.47128">
        <ele>71</ele>
        <time>2016-05-25T13:28:47Z</time>
      </trkpt>
      <trkpt lat="43.21049" lon="6.47096">
        <ele>70</ele>
        <time>2016-05-25T13:29:08Z</time>
      </trkpt>
      <trkpt lat="43.21034" lon="6.47073">
        <ele>69</ele>
        <time>2016-05-25T13:29:27Z</time>
      </trkpt>
      <trkpt lat="43.21028" lon="6.47042">
        <ele>67</ele>
        <time>2016-05-25T13:29:49Z</time>
      </trkpt>
      <trkpt lat="43.21023" lon="6.47011">
        <ele>66</ele>
        <time>2016-05-25T13:30:08Z</time>
      </trkpt>
      <trkpt lat="43.2103" lon="6.46981">
        <ele>65</ele>
        <time>2016-05-25T13:30:33Z</time>
      </trkpt>
      <trkpt lat="43.21038" lon="6.46951">
        <ele>64</ele>
        <time>2016-05-25T13:30:52Z</time>
      </trkpt>
      <trkpt lat="43.21027" lon="6.46922">
        <ele>62</ele>
        <time>2016-05-25T13:31:16Z</time>
      </trkpt>
      <trkpt lat="43.21017" lon="6.46893">
        <ele>60</ele>
        <time>2016-05-25T13:31:34Z</time>
      </trkpt>
      <trkpt lat="43.21016" lon="6.4683">
        <ele>57</ele>
        <time>2016-05-25T13:32:51Z</time>
      </trkpt>
      <trkpt lat="43.21003" lon="6.4677">
        <ele>54</ele>
        <time>2016-05-25T13:33:20Z</time>
      </trkpt>
      <trkpt lat="43.20987" lon="6.46749">
        <ele>54</ele>
        <time>2016-05-25T13:33:34Z</time>
      </trkpt>
      <trkpt lat="43.20964" lon="6.46742">
        <ele>53</ele>
        <time>2016-05-25T13:33:48Z</time>
      </trkpt>
      <trkpt lat="43.20943" lon="6.46751">
        <ele>53</ele>
        <time>2016-05-25T13:34:06Z</time>
      </trkpt>
      <trkpt lat="43.20923" lon="6.46769">
        <ele>52</ele>
        <time>2016-05-25T13:34:25Z</time>
      </trkpt>
      <trkpt lat="43.2091" lon="6.46795">
        <ele>51</ele>
        <time>2016-05-25T13:34:45Z</time>
      </trkpt>
      <trkpt lat="43.2089" lon="6.46811">
        <ele>50</ele>
        <time>2016-05-25T13:35:05Z</time>
      </trkpt>
      <trkpt lat="43.20853" lon="6.4685">
        <ele>48</ele>
        <time>2016-05-25T13:35:43Z</time>
      </trkpt>
      <trkpt lat="43.20831" lon="6.46862">
        <ele>47</ele>
        <time>2016-05-25T13:36:08Z</time>
      </trkpt>
      <trkpt lat="43.20808" lon="6.46864">
        <ele>46</ele>
        <time>2016-05-25T13:36:27Z</time>
      </trkpt>
      <trkpt lat="43.20788" lon="6.4688">
        <ele>45</ele>
        <time>2016-05-25T13:36:44Z</time>
      </trkpt>
      <trkpt lat="43.2077" lon="6.46899">
        <ele>43</ele>
        <time>2016-05-25T13:37:02Z</time>
      </trkpt>
      <trkpt lat="43.20747" lon="6.46894">
        <ele>42</ele>
        <time>2016-05-25T13:37:22Z</time>
      </trkpt>
      <trkpt lat="43.20701" lon="6.46886">
        <ele>40</ele>
        <time>2016-05-25T13:38:01Z</time>
      </trkpt>
      <trkpt lat="43.2066" lon="6.46858">
        <ele>38</ele>
        <time>2016-05-25T13:38:37Z</time>
      </trkpt>
      <trkpt lat="43.20643" lon="6.46838">
        <ele>35</ele>
        <time>2016-05-25T13:38:55Z</time>
      </trkpt>
    </trkseg>
  </trk>
</gpx>